createdAt,value
2023-05-24T00:01:10.404Z,13.48
2023-05-24T00:03:39.703Z,11.65
2023-05-24T00:06:07.206Z,16.37
2023-05-24T00:08:34.602Z,16.02
2023-05-24T00:11:01.806Z,12.35
2023-05-24T00:13:29.383Z,10.23
2023-05-24T00:15:56.524Z,11.43
2023-05-24T00:18:23.896Z,7.90
2023-05-24T00:20:52.115Z,12.27
2023-05-24T00:23:19.579Z,9.15
2023-05-24T00:25:49.572Z,7.88
2023-05-24T00:28:17.428Z,6.85
2023-05-24T00:30:46.081Z,6.88
2023-05-24T00:33:13.605Z,11.48
2023-05-24T00:35:40.829Z,12.45
2023-05-24T00:38:08.304Z,11.43
2023-05-24T00:40:35.494Z,8.80
2023-05-24T00:43:02.920Z,6.70
2023-05-24T00:45:32.373Z,7.60
2023-05-24T00:48:01.857Z,8.15
2023-05-24T00:50:29.383Z,7.25
2023-05-24T00:53:01.262Z,7.53
2023-05-24T00:55:29.592Z,7.78
2023-05-24T00:58:00.838Z,7.45
2023-05-24T01:00:29.602Z,7.45
2023-05-24T01:02:57.181Z,6.97
2023-05-24T01:05:25.192Z,7.63
2023-05-24T01:08:02.808Z,5.75
2023-05-24T01:11:06.517Z,7.32
2023-05-24T01:13:47.738Z,8.88
2023-05-24T01:16:51.809Z,5.88
2023-05-24T01:19:32.020Z,6.15
2023-05-24T01:22:21.078Z,7.65
2023-05-24T01:25:03.983Z,11.52
2023-05-24T01:27:36.480Z,7.38
2023-05-24T01:30:05.110Z,7.32
2023-05-24T01:32:33.185Z,6.88
2023-05-24T01:35:00.784Z,8.55
2023-05-24T01:37:28.148Z,9.20
2023-05-24T01:39:55.846Z,8.30
2023-05-24T01:42:46.025Z,7.75
2023-05-24T01:45:45.064Z,6.50
2023-05-24T01:48:28.590Z,7.20
2023-05-24T01:50:59.932Z,9.93
2023-05-24T01:53:33.741Z,6.63
2023-05-24T01:56:05.012Z,8.07
2023-05-24T01:58:33.307Z,8.05
2023-05-24T02:01:01.766Z,6.70
2023-05-24T02:03:29.171Z,7.68
2023-05-24T02:05:56.867Z,5.80
2023-05-24T02:08:23.921Z,7.90
2023-05-24T02:10:52.269Z,6.78
2023-05-24T02:13:19.964Z,7.70
2023-05-24T02:15:47.926Z,6.95
2023-05-24T02:18:15.104Z,10.23
2023-05-24T02:20:43.340Z,8.60
2023-05-24T02:23:10.683Z,6.05
2023-05-24T02:25:38.083Z,6.88
2023-05-24T02:28:05.310Z,7.70
2023-05-24T02:30:32.711Z,6.57
2023-05-24T02:33:00.789Z,6.18
2023-05-24T02:35:28.221Z,6.15
2023-05-24T02:37:58.628Z,6.22
2023-05-24T02:40:26.399Z,6.53
2023-05-24T02:42:53.555Z,8.52
2023-05-24T02:45:20.976Z,8.43
2023-05-24T02:47:48.167Z,8.30
2023-05-24T02:50:15.703Z,13.30
2023-05-24T02:52:42.768Z,9.82
2023-05-24T02:55:10.508Z,10.05
2023-05-24T02:57:38.448Z,6.70
2023-05-24T03:00:11.157Z,10.02
2023-05-24T03:02:41.165Z,10.45
2023-05-24T03:05:09.254Z,10.80
2023-05-24T03:07:36.486Z,8.40
2023-05-24T03:10:04.295Z,7.65
2023-05-24T03:12:31.708Z,9.60
2023-05-24T03:14:59.076Z,9.05
2023-05-24T03:17:26.486Z,9.70
2023-05-24T03:19:53.961Z,7.57
2023-05-24T03:22:21.126Z,10.40
2023-05-24T03:24:48.924Z,10.55
2023-05-24T03:27:17.436Z,9.88
2023-05-24T03:29:44.745Z,8.05
2023-05-24T03:32:12.387Z,7.40
2023-05-24T03:34:39.801Z,9.65
2023-05-24T03:37:07.241Z,10.90
2023-05-24T03:39:35.494Z,14.30
2023-05-24T03:42:21.251Z,8.02
2023-05-24T03:44:48.625Z,9.82
2023-05-24T03:47:16.214Z,11.25
2023-05-24T03:49:43.605Z,10.93
2023-05-24T03:52:10.859Z,9.85
2023-05-24T03:54:38.364Z,40.35
2023-05-24T03:57:05.817Z,75.38
2023-05-24T03:59:33.269Z,43.13
2023-05-24T04:02:00.367Z,24.92
2023-05-24T04:04:27.761Z,15.43
2023-05-24T04:06:56.228Z,9.75
2023-05-24T04:09:24.711Z,8.63
2023-05-24T04:11:51.897Z,12.18
2023-05-24T04:14:19.327Z,10.43
2023-05-24T04:16:46.845Z,9.68
2023-05-24T04:19:14.303Z,10.00
2023-05-24T04:21:41.399Z,8.70
2023-05-24T04:24:09.472Z,12.23
2023-05-24T04:26:37.729Z,8.90
2023-05-24T04:29:05.425Z,12.25
2023-05-24T04:31:34.219Z,9.57
2023-05-24T04:34:02.209Z,10.73
2023-05-24T04:36:31.581Z,9.32
2023-05-24T04:39:03.020Z,8.40
2023-05-24T04:41:32.225Z,12.45
2023-05-24T04:44:02.469Z,7.80
2023-05-24T04:48:56.756Z,7.82
2023-05-24T04:51:24.008Z,7.45
2023-05-24T04:53:51.322Z,12.98
2023-05-24T04:56:19.634Z,15.63
2023-05-24T04:58:48.107Z,9.95
2023-05-24T05:01:15.336Z,9.93
2023-05-24T05:03:47.860Z,9.98
2023-05-24T05:06:15.507Z,11.05
2023-05-24T05:08:43.675Z,9.48
2023-05-24T05:11:13.373Z,10.15
2023-05-24T05:13:46.207Z,9.82
2023-05-24T05:16:15.777Z,13.77
2023-05-24T05:18:49.693Z,8.75
2023-05-24T05:21:18.845Z,12.23
2023-05-24T05:23:48.718Z,10.32
2023-05-24T05:29:00.661Z,6.88
2023-05-24T05:31:41.469Z,11.75
2023-05-24T05:34:16.344Z,9.95
2023-05-24T05:36:48.222Z,8.35
2023-05-24T05:39:16.709Z,8.98
2023-05-24T05:41:46.400Z,9.85
2023-05-24T05:44:14.397Z,12.10
2023-05-24T05:46:43.961Z,10.60
2023-05-24T05:51:39.388Z,8.77
2023-05-24T05:54:19.211Z,10.68
2023-05-24T05:56:54.263Z,10.02
2023-05-24T05:59:21.775Z,11.38
2023-05-24T06:01:50.359Z,14.50
2023-05-24T06:04:27.558Z,8.35
2023-05-24T06:09:55.788Z,10.90
2023-05-24T06:12:46.320Z,10.18
2023-05-24T06:15:26.041Z,11.45
2023-05-24T06:18:08.765Z,9.95
2023-05-24T06:20:42.670Z,14.55
2023-05-24T06:23:33.073Z,10.20
2023-05-24T06:26:13.970Z,18.65
2023-05-24T06:32:37.546Z,13.60
2023-05-24T06:35:59.683Z,13.02
2023-05-24T06:38:29.114Z,10.02
2023-05-24T06:41:01.429Z,9.95
2023-05-24T06:43:41.834Z,8.70
2023-05-24T06:46:11.911Z,9.77
2023-05-24T06:48:51.380Z,8.63
2023-05-24T06:51:31.044Z,10.13
2023-05-24T06:54:38.767Z,6.90
2023-05-24T06:57:25.289Z,7.03
2023-05-24T07:00:05.665Z,10.77
2023-05-24T07:02:44.408Z,12.05
2023-05-24T07:05:14.094Z,11.27
2023-05-24T07:07:43.081Z,7.50
2023-05-24T07:10:11.797Z,6.93
2023-05-24T07:12:41.674Z,7.80
2023-05-24T07:15:19.357Z,8.00
2023-05-24T07:17:52.221Z,9.10
2023-05-24T07:20:22.352Z,6.60
2023-05-24T07:22:52.143Z,11.23
2023-05-24T07:25:24.025Z,7.68
2023-05-24T07:27:58.374Z,10.55
2023-05-24T07:30:32.262Z,6.78
2023-05-24T07:33:00.227Z,8.98
2023-05-24T07:35:30.088Z,11.38
2023-05-24T07:38:13.215Z,10.10
2023-05-24T07:40:53.673Z,8.93
2023-05-24T07:43:27.693Z,8.85
2023-05-24T07:46:02.929Z,10.32
2023-05-24T07:48:30.098Z,7.63
2023-05-24T07:50:57.552Z,11.95
2023-05-24T07:53:24.835Z,8.25
2023-05-24T07:55:52.454Z,10.55
2023-05-24T07:58:19.713Z,9.30
2023-05-24T08:00:47.155Z,5.38
2023-05-24T08:03:15.607Z,10.98
2023-05-24T08:05:43.179Z,9.20
2023-05-24T08:08:10.644Z,9.93
2023-05-24T08:13:24.718Z,8.20
2023-05-24T08:15:58.808Z,9.95
2023-05-24T08:18:26.250Z,8.65
2023-05-24T08:20:53.700Z,8.90
2023-05-24T08:23:21.937Z,12.20
2023-05-24T08:25:49.328Z,10.43
2023-05-24T08:28:17.012Z,11.85
2023-05-24T08:30:44.752Z,15.98
2023-05-24T08:33:11.876Z,9.07
2023-05-24T08:35:39.428Z,10.25
2023-05-24T08:38:06.980Z,10.60
2023-05-24T08:40:35.046Z,12.80
2023-05-24T08:43:02.448Z,10.45
2023-05-24T08:45:31.640Z,7.85
2023-05-24T08:48:01.223Z,8.60
2023-05-24T08:50:35.075Z,9.55
2023-05-24T08:53:05.246Z,5.70
2023-05-24T08:55:33.704Z,9.88
2023-05-24T08:58:01.159Z,10.30
2023-05-24T09:00:28.665Z,5.85
2023-05-24T09:02:58.988Z,8.90
2023-05-24T09:05:27.332Z,13.93
2023-05-24T09:07:57.124Z,15.00
2023-05-24T09:10:25.487Z,7.88
2023-05-24T09:12:57.628Z,9.95
2023-05-24T09:15:25.467Z,11.07
2023-05-24T09:17:55.463Z,12.00
2023-05-24T09:20:23.314Z,7.97
2023-05-24T09:22:53.437Z,10.18
2023-05-24T09:25:21.636Z,7.78
2023-05-24T09:27:53.335Z,10.40
2023-05-24T09:30:21.663Z,13.30
2023-05-24T09:32:57.403Z,9.20
2023-05-24T09:35:27.097Z,13.25
2023-05-24T09:37:57.450Z,10.65
2023-05-24T09:40:24.948Z,14.93
2023-05-24T09:43:09.799Z,10.45
2023-05-24T09:45:50.125Z,10.73
2023-05-24T09:48:24.333Z,9.70
2023-05-24T09:51:17.775Z,9.27
2023-05-24T09:53:48.760Z,13.70
2023-05-24T09:56:17.169Z,9.45
2023-05-24T09:58:45.738Z,7.53
2023-05-24T10:01:18.647Z,6.83
2023-05-24T10:03:56.384Z,7.82
2023-05-24T10:06:24.360Z,10.52
2023-05-24T10:08:52.338Z,10.82
2023-05-24T10:11:21.061Z,9.48
2023-05-24T10:13:49.436Z,7.38
2023-05-24T10:16:17.375Z,9.70
2023-05-24T10:18:44.763Z,5.93
2023-05-24T10:21:13.767Z,6.47
2023-05-24T10:23:44.635Z,7.05
2023-05-24T10:26:14.325Z,8.48
2023-05-24T10:28:46.030Z,6.90
2023-05-24T10:31:34.436Z,7.53
2023-05-24T10:34:08.452Z,6.95
2023-05-24T10:36:40.215Z,8.35
2023-05-24T10:39:13.639Z,11.70
2023-05-24T10:41:42.144Z,5.25
2023-05-24T10:44:14.006Z,8.80
2023-05-24T10:47:13.266Z,10.55
2023-05-24T10:49:57.894Z,8.95
2023-05-24T10:52:37.408Z,10.45
2023-05-24T10:55:10.893Z,6.50
2023-05-24T10:57:41.384Z,10.07
2023-05-24T11:00:36.230Z,8.05
2023-05-24T11:03:10.814Z,9.70
2023-05-24T11:05:53.452Z,6.50
2023-05-24T11:08:26.170Z,7.85
2023-05-24T11:11:26.621Z,9.38
2023-05-24T11:14:00.768Z,7.65
2023-05-24T11:16:40.943Z,8.10
2023-05-24T11:19:20.455Z,7.97
2023-05-24T11:21:59.663Z,8.07
2023-05-24T11:24:38.199Z,12.07
2023-05-24T11:27:11.926Z,8.52
2023-05-24T11:29:47.518Z,6.05
2023-05-24T11:32:21.386Z,6.65
2023-05-24T11:34:50.004Z,9.75
2023-05-24T11:37:18.568Z,11.32
2023-05-24T11:39:52.824Z,9.52
2023-05-24T11:42:22.296Z,8.40
2023-05-24T11:44:50.071Z,18.52
2023-05-24T11:47:20.310Z,9.60
2023-05-24T11:49:56.900Z,16.27
2023-05-24T11:52:23.934Z,10.20
2023-05-24T11:54:51.796Z,8.77
2023-05-24T11:57:30.683Z,8.07
2023-05-24T11:59:59.263Z,7.00
2023-05-24T12:02:30.866Z,8.55
2023-05-24T12:05:12.356Z,8.07
2023-05-24T12:07:51.670Z,10.65
2023-05-24T12:10:22.967Z,9.55
2023-05-24T12:12:58.791Z,9.38
2023-05-24T12:15:32.350Z,9.95
2023-05-24T12:18:00.840Z,8.82
2023-05-24T12:20:28.580Z,11.07
2023-05-24T12:22:56.294Z,8.57
2023-05-24T12:25:27.033Z,9.95
2023-05-24T12:27:55.944Z,9.27
2023-05-24T12:30:24.696Z,7.13
2023-05-24T12:32:55.919Z,11.55
2023-05-24T12:35:23.838Z,10.35
2023-05-24T12:37:59.828Z,7.22
2023-05-24T12:40:27.586Z,11.15
2023-05-24T12:42:58.028Z,10.60
2023-05-24T12:45:45.435Z,8.27
2023-05-24T12:48:13.918Z,8.38
2023-05-24T12:50:41.263Z,10.82
2023-05-24T12:53:08.822Z,8.13
2023-05-24T12:55:36.338Z,11.93
2023-05-24T12:58:06.440Z,12.82
2023-05-24T13:00:33.987Z,10.25
2023-05-24T13:03:02.107Z,8.95
2023-05-24T13:05:30.130Z,13.70
2023-05-24T13:07:58.150Z,8.85
2023-05-24T13:10:25.931Z,10.60
2023-05-24T13:12:56.290Z,13.13
2023-05-24T13:15:24.336Z,20.25
2023-05-24T13:17:54.368Z,11.57
2023-05-24T13:20:25.675Z,10.88
2023-05-24T13:23:02.091Z,16.02
2023-05-24T13:25:59.626Z,9.57
2023-05-24T13:28:32.753Z,11.98
2023-05-24T13:31:06.033Z,9.57
2023-05-24T13:33:43.501Z,15.52
2023-05-24T13:36:28.647Z,13.38
2023-05-24T13:39:15.707Z,13.02
2023-05-24T13:41:48.512Z,20.77
2023-05-24T13:44:16.854Z,14.32
2023-05-24T13:46:46.261Z,17.20
2023-05-24T13:49:19.303Z,9.90
2023-05-24T13:51:51.071Z,14.52
2023-05-24T13:54:18.725Z,12.95
2023-05-24T13:56:51.367Z,10.30
2023-05-24T13:59:38.788Z,15.70
2023-05-24T14:02:11.334Z,9.25
2023-05-24T14:04:42.140Z,14.20
2023-05-24T14:07:09.532Z,10.40
2023-05-24T14:09:38.339Z,15.65
2023-05-24T14:14:59.402Z,7.30
2023-05-24T14:17:23.373Z,15.20
2023-05-24T14:19:51.155Z,15.73
2023-05-24T14:22:18.425Z,10.00
2023-05-24T14:24:46.415Z,10.35
2023-05-24T14:27:13.625Z,9.00
2023-05-24T14:29:43.341Z,11.45
2023-05-24T14:32:18.766Z,10.20
2023-05-24T14:34:54.549Z,9.75
2023-05-24T14:37:22.819Z,9.13
2023-05-24T14:39:51.728Z,17.83
2023-05-24T14:42:20.754Z,13.67
2023-05-24T14:44:49.292Z,22.75
2023-05-24T14:47:16.526Z,13.70
2023-05-24T14:49:43.885Z,7.93
2023-05-24T14:52:11.058Z,13.23
2023-05-24T14:54:38.706Z,11.45
2023-05-24T14:57:07.916Z,7.22
2023-05-24T14:59:35.879Z,8.75
2023-05-24T15:02:03.796Z,12.90
2023-05-24T15:04:32.209Z,8.20
2023-05-24T15:06:59.438Z,14.30
2023-05-24T15:09:26.993Z,10.65
2023-05-24T15:11:54.203Z,10.80
2023-05-24T15:14:22.046Z,9.77
2023-05-24T15:16:49.709Z,15.27
2023-05-24T15:19:17.731Z,17.75
2023-05-24T15:21:49.916Z,16.52
2023-05-24T15:24:21.957Z,16.10
2023-05-24T15:26:49.375Z,23.15
2023-05-24T15:29:17.624Z,13.05
2023-05-24T15:31:45.064Z,15.15
2023-05-24T15:34:12.760Z,31.98
2023-05-24T15:36:42.679Z,24.05
2023-05-24T15:39:10.227Z,19.77
2023-05-24T15:41:58.434Z,19.27
2023-05-24T15:45:11.908Z,23.23
2023-05-24T15:47:52.382Z,8.55
2023-05-24T15:50:51.992Z,11.60
2023-05-24T15:53:21.650Z,7.18
2023-05-24T15:55:51.300Z,25.13
2023-05-24T15:58:20.549Z,44.45
2023-05-24T16:00:54.809Z,52.42
2023-05-24T16:03:28.353Z,86.28
2023-05-24T16:05:59.211Z,50.22
2023-05-24T16:08:39.982Z,15.57
2023-05-24T16:11:14.297Z,28.00
2023-05-24T16:13:43.526Z,13.65
2023-05-24T16:16:19.142Z,15.80
2023-05-24T16:18:51.170Z,10.73
2023-05-24T16:21:19.746Z,14.30
2023-05-24T16:23:50.054Z,28.60
2023-05-24T16:26:40.243Z,20.83
2023-05-24T16:29:23.180Z,17.60
2023-05-24T16:31:57.535Z,18.85
2023-05-24T16:34:25.698Z,22.83
2023-05-24T16:36:53.649Z,14.55
2023-05-24T16:39:21.549Z,11.68
2023-05-24T16:41:49.768Z,8.48
2023-05-24T16:44:22.968Z,18.58
2023-05-24T16:46:52.083Z,16.10
2023-05-24T16:49:19.517Z,15.15
2023-05-24T16:51:50.606Z,7.47
2023-05-24T16:54:17.896Z,9.10
2023-05-24T16:56:46.345Z,9.15
2023-05-24T16:59:14.158Z,5.93
2023-05-24T17:01:42.177Z,23.00
2023-05-24T17:04:09.810Z,12.60
2023-05-24T17:06:38.145Z,10.73
2023-05-24T17:09:05.576Z,11.77
2023-05-24T17:11:35.362Z,9.23
2023-05-24T17:14:04.231Z,10.68
2023-05-24T17:16:32.305Z,8.48
2023-05-24T17:19:04.325Z,8.27
2023-05-24T17:21:39.461Z,7.85
2023-05-24T17:24:08.895Z,8.43
2023-05-24T17:26:39.236Z,7.40
2023-05-24T17:29:06.621Z,8.52
2023-05-24T17:31:40.198Z,6.82
2023-05-24T17:34:09.178Z,7.22
2023-05-24T17:36:37.928Z,8.38
2023-05-24T17:39:05.305Z,7.28
2023-05-24T17:41:33.411Z,8.88
2023-05-24T17:44:03.687Z,15.15
2023-05-24T17:46:35.704Z,9.75
2023-05-24T17:49:06.727Z,7.82
2023-05-24T17:51:40.200Z,5.22
2023-05-24T17:54:09.772Z,6.38
2023-05-24T17:56:42.122Z,14.93
2023-05-24T17:59:13.158Z,6.70
2023-05-24T18:01:47.834Z,9.05
2023-05-24T18:04:18.818Z,4.45
2023-05-24T18:06:47.332Z,13.63
2023-05-24T18:09:16.291Z,7.97
2023-05-24T18:11:54.968Z,10.75
2023-05-24T18:14:24.536Z,13.02
2023-05-24T18:16:55.909Z,10.50
2023-05-24T18:19:26.538Z,11.32
2023-05-24T18:21:54.882Z,6.50
2023-05-24T18:24:22.990Z,6.40
2023-05-24T18:26:52.118Z,17.80
2023-05-24T18:29:21.147Z,10.30
2023-05-24T18:31:54.607Z,11.48
2023-05-24T18:34:23.725Z,14.95
2023-05-24T18:36:55.346Z,13.52
2023-05-24T18:39:24.549Z,9.80
2023-05-24T18:41:58.639Z,15.05
2023-05-24T18:44:30.234Z,16.70
2023-05-24T18:47:00.395Z,10.88
2023-05-24T18:49:30.022Z,12.25
2023-05-24T18:51:58.135Z,10.25
2023-05-24T18:54:25.965Z,9.30
2023-05-24T18:56:54.384Z,10.98
2023-05-24T18:59:29.307Z,7.45
2023-05-24T19:01:58.456Z,10.75
2023-05-24T19:04:25.951Z,8.27
2023-05-24T19:06:54.413Z,15.10
2023-05-24T19:09:22.750Z,11.95
2023-05-24T19:11:51.713Z,9.32
2023-05-24T19:14:22.172Z,15.90
2023-05-24T19:16:50.459Z,12.45
2023-05-24T19:19:18.598Z,14.70
2023-05-24T19:21:46.965Z,31.58
2023-05-24T19:24:14.426Z,22.25
2023-05-24T19:26:42.403Z,12.60
2023-05-24T19:29:10.336Z,17.83
2023-05-24T19:31:39.800Z,11.82
2023-05-24T19:34:15.099Z,9.35
2023-05-24T19:36:46.410Z,11.77
2023-05-24T19:39:24.111Z,16.58
2023-05-24T19:44:31.489Z,9.82
2023-05-24T19:47:00.547Z,15.30
2023-05-24T19:49:28.537Z,15.30
2023-05-24T19:51:58.212Z,16.58
2023-05-24T19:58:21.222Z,14.75
2023-05-24T20:00:55.207Z,13.65
2023-05-24T20:03:40.108Z,10.13
2023-05-24T20:06:27.556Z,11.43
2023-05-24T20:09:01.139Z,8.65
2023-05-24T20:11:53.201Z,18.23
2023-05-24T20:14:42.695Z,10.18
2023-05-24T20:20:24.903Z,9.68
2023-05-24T20:23:06.873Z,6.03
2023-05-24T20:25:58.819Z,13.07
2023-05-24T20:31:34.872Z,7.38
2023-05-24T20:34:09.521Z,8.57
2023-05-24T20:36:45.209Z,7.95
2023-05-24T20:39:40.350Z,7.53
2023-05-24T20:42:24.943Z,9.20
2023-05-24T20:45:01.566Z,9.32
2023-05-24T20:47:37.776Z,7.07
2023-05-24T20:50:17.612Z,6.85
2023-05-24T20:52:59.040Z,11.55
2023-05-24T20:55:35.536Z,9.38
2023-05-24T20:58:37.313Z,8.68
2023-05-24T21:01:10.597Z,10.95
2023-05-24T21:06:25.765Z,6.75
2023-05-24T21:08:58.544Z,8.43
2023-05-24T21:11:26.926Z,11.98
2023-05-24T21:13:59.664Z,10.32
2023-05-24T21:16:37.682Z,11.23
2023-05-24T21:19:08.364Z,8.60
2023-05-24T21:22:06.715Z,8.15
2023-05-24T21:24:45.025Z,7.88
2023-05-24T21:27:20.651Z,14.30
2023-05-24T21:29:56.417Z,10.68
2023-05-24T21:32:38.722Z,8.77
2023-05-24T21:35:47.560Z,9.00
2023-05-24T21:38:21.998Z,8.80
2023-05-24T21:40:53.998Z,6.55
2023-05-24T21:43:25.983Z,9.73
2023-05-24T21:45:54.533Z,11.10
2023-05-24T21:48:29.209Z,11.10
2023-05-24T21:50:59.059Z,13.45
2023-05-24T21:53:38.265Z,8.98
2023-05-24T21:56:07.416Z,11.82
2023-05-24T21:58:41.773Z,12.00
2023-05-24T22:01:10.282Z,8.88
2023-05-24T22:03:40.645Z,14.20
2023-05-24T22:06:09.914Z,11.15
2023-05-24T22:08:37.886Z,12.05
2023-05-24T22:11:05.166Z,11.32
2023-05-24T22:16:19.881Z,10.45
2023-05-24T22:18:51.559Z,8.48
2023-05-24T22:21:21.617Z,9.68
2023-05-24T22:23:51.473Z,8.25
2023-05-24T22:26:19.149Z,8.75
2023-05-24T22:29:00.525Z,7.68
2023-05-24T22:31:30.063Z,10.05
2023-05-24T22:34:05.009Z,11.75
2023-05-24T22:36:45.094Z,11.93
2023-05-24T22:39:22.353Z,9.45
2023-05-24T22:41:56.369Z,11.02
2023-05-24T22:44:24.020Z,8.82
2023-05-24T22:46:59.111Z,10.45
2023-05-24T22:49:34.466Z,11.43
2023-05-24T22:52:03.322Z,12.27
2023-05-24T22:54:34.539Z,13.73
2023-05-24T22:57:13.722Z,10.95
2023-05-24T22:59:48.740Z,11.70
2023-05-24T23:02:31.144Z,14.95
2023-05-24T23:05:04.536Z,9.43
2023-05-24T23:07:32.584Z,8.45
2023-05-24T23:10:01.442Z,10.88
2023-05-24T23:12:29.835Z,16.38
2023-05-24T23:17:28.637Z,14.85
2023-05-24T23:19:57.627Z,14.70
2023-05-24T23:22:27.185Z,13.45
2023-05-24T23:24:56.058Z,13.75
2023-05-24T23:27:23.887Z,10.50
2023-05-24T23:29:53.216Z,11.50
2023-05-24T23:32:25.168Z,11.27
2023-05-24T23:34:53.895Z,12.63
2023-05-24T23:37:30.058Z,10.95
2023-05-24T23:40:11.452Z,12.93
2023-05-24T23:42:51.296Z,13.60
2023-05-24T23:45:20.115Z,11.05
2023-05-24T23:47:47.321Z,11.05
2023-05-24T23:50:17.962Z,13.02
2023-05-24T23:52:46.538Z,9.73
2023-05-24T23:55:18.029Z,11.50
2023-05-24T23:57:47.637Z,14.85
